sensor_id;sensor_type;location;lat;lon;timestamp;P1;durP1;ratioP1;P2;durP2;ratioP2
37655;SDS011;23498;50.958;3.124;2022-11-04T00:01:17;5.32;;;1.98;;
37655;SDS011;23498;50.958;3.124;2022-11-04T00:03:43;5.97;;;1.90;;
37655;SDS011;23498;50.958;3.124;2022-11-04T00:06:09;4.40;;;1.85;;
37655;SDS011;23498;50.958;3.124;2022-11-04T00:08:35;6.00;;;2.33;;
37655;SDS011;23498;50.958;3.124;2022-11-04T00:11:01;6.22;;;2.20;;
37655;SDS011;23498;50.958;3.124;2022-11-04T00:13:46;4.78;;;2.08;;
37655;SDS011;23498;50.958;3.124;2022-11-04T00:16:12;7.97;;;2.80;;
37655;SDS011;23498;50.958;3.124;2022-11-04T00:19:00;9.40;;;2.78;;
37655;SDS011;23498;50.958;3.124;2022-11-04T00:21:29;10.18;;;3.72;;
37655;SDS011;23498;50.958;3.124;2022-11-04T00:24:13;9.40;;;3.70;;
37655;SDS011;23498;50.958;3.124;2022-11-04T00:26:58;8.30;;;3.75;;
37655;SDS011;23498;50.958;3.124;2022-11-04T00:29:43;9.27;;;3.45;;
37655;SDS011;23498;50.958;3.124;2022-11-04T00:32:09;11.82;;;3.50;;
37655;SDS011;23498;50.958;3.124;2022-11-04T00:34:53;9.93;;;3.40;;
37655;SDS011;23498;50.958;3.124;2022-11-04T00:37:20;11.20;;;3.50;;
37655;SDS011;23498;50.958;3.124;2022-11-04T00:39:46;7.63;;;3.20;;
37655;SDS011;23498;50.958;3.124;2022-11-04T00:42:12;8.80;;;3.13;;
37655;SDS011;23498;50.958;3.124;2022-11-04T00:44:37;7.38;;;2.55;;
37655;SDS011;23498;50.958;3.124;2022-11-04T00:47:03;8.60;;;2.60;;
37655;SDS011;23498;50.958;3.124;2022-11-04T00:49:29;7.97;;;2.95;;
37655;SDS011;23498;50.958;3.124;2022-11-04T00:51:55;10.90;;;2.63;;
37655;SDS011;23498;50.958;3.124;2022-11-04T00:54:21;8.90;;;2.67;;
37655;SDS011;23498;50.958;3.124;2022-11-04T00:56:47;7.90;;;2.70;;
37655;SDS011;23498;50.958;3.124;2022-11-04T00:59:14;4.63;;;2.13;;
37655;SDS011;23498;50.958;3.124;2022-11-04T01:01:40;7.00;;;2.25;;
37655;SDS011;23498;50.958;3.124;2022-11-04T01:04:06;9.77;;;2.63;;
37655;SDS011;23498;50.958;3.124;2022-11-04T01:06:32;9.00;;;2.70;;
37655;SDS011;23498;50.958;3.124;2022-11-04T01:08:59;7.60;;;2.63;;
37655;SDS011;23498;50.958;3.124;2022-11-04T01:11:26;6.80;;;2.83;;
37655;SDS011;23498;50.958;3.124;2022-11-04T01:13:53;7.03;;;2.17;;
37655;SDS011;23498;50.958;3.124;2022-11-04T01:16:20;9.13;;;2.38;;
37655;SDS011;23498;50.958;3.124;2022-11-04T01:18:46;9.82;;;2.75;;
37655;SDS011;23498;50.958;3.124;2022-11-04T01:21:13;8.45;;;2.35;;
37655;SDS011;23498;50.958;3.124;2022-11-04T01:23:40;8.23;;;2.80;;
37655;SDS011;23498;50.958;3.124;2022-11-04T01:26:07;7.28;;;2.50;;
37655;SDS011;23498;50.958;3.124;2022-11-04T01:28:33;9.75;;;2.65;;
37655;SDS011;23498;50.958;3.124;2022-11-04T01:30:59;15.32;;;2.80;;
37655;SDS011;23498;50.958;3.124;2022-11-04T01:33:29;10.07;;;3.38;;
37655;SDS011;23498;50.958;3.124;2022-11-04T01:35:58;6.00;;;2.75;;
37655;SDS011;23498;50.958;3.124;2022-11-04T01:38:24;8.60;;;2.55;;
37655;SDS011;23498;50.958;3.124;2022-11-04T01:40:50;9.38;;;2.75;;
37655;SDS011;23498;50.958;3.124;2022-11-04T01:43:16;8.77;;;3.03;;
37655;SDS011;23498;50.958;3.124;2022-11-04T01:45:43;8.60;;;2.17;;
37655;SDS011;23498;50.958;3.124;2022-11-04T01:48:12;7.35;;;2.22;;
37655;SDS011;23498;50.958;3.124;2022-11-04T01:50:41;9.27;;;2.30;;
37655;SDS011;23498;50.958;3.124;2022-11-04T01:53:15;7.10;;;2.22;;
37655;SDS011;23498;50.958;3.124;2022-11-04T01:55:43;9.45;;;2.50;;
37655;SDS011;23498;50.958;3.124;2022-11-04T01:58:12;5.85;;;2.55;;
37655;SDS011;23498;50.958;3.124;2022-11-04T02:00:39;6.45;;;2.10;;
37655;SDS011;23498;50.958;3.124;2022-11-04T02:03:07;8.55;;;2.53;;
37655;SDS011;23498;50.958;3.124;2022-11-04T02:05:34;8.65;;;2.17;;
37655;SDS011;23498;50.958;3.124;2022-11-04T02:08:01;9.45;;;2.20;;
37655;SDS011;23498;50.958;3.124;2022-11-04T02:10:29;8.02;;;2.03;;
37655;SDS011;23498;50.958;3.124;2022-11-04T02:12:55;8.15;;;2.17;;
37655;SDS011;23498;50.958;3.124;2022-11-04T02:15:42;6.78;;;2.88;;
37655;SDS011;23498;50.958;3.124;2022-11-04T02:28:24;11.35;;;2.20;;
37655;SDS011;23498;50.958;3.124;2022-11-04T02:30:59;7.78;;;2.22;;
37655;SDS011;23498;50.958;3.124;2022-11-04T02:33:36;7.38;;;2.88;;
37655;SDS011;23498;50.958;3.124;2022-11-04T02:36:29;6.53;;;1.90;;
37655;SDS011;23498;50.958;3.124;2022-11-04T02:39:21;9.40;;;2.25;;
37655;SDS011;23498;50.958;3.124;2022-11-04T02:46:48;10.85;;;2.55;;
37655;SDS011;23498;50.958;3.124;2022-11-04T02:52:01;9.52;;;2.83;;
37655;SDS011;23498;50.958;3.124;2022-11-04T02:57:18;8.95;;;2.97;;
37655;SDS011;23498;50.958;3.124;2022-11-04T02:59:47;7.65;;;3.50;;
37655;SDS011;23498;50.958;3.124;2022-11-04T03:02:15;7.95;;;3.25;;
37655;SDS011;23498;50.958;3.124;2022-11-04T03:04:44;9.68;;;4.20;;
37655;SDS011;23498;50.958;3.124;2022-11-04T03:07:14;8.65;;;4.03;;
37655;SDS011;23498;50.958;3.124;2022-11-04T03:09:52;9.57;;;3.97;;
37655;SDS011;23498;50.958;3.124;2022-11-04T03:12:21;10.48;;;3.70;;
37655;SDS011;23498;50.958;3.124;2022-11-04T03:14:53;14.70;;;3.60;;
37655;SDS011;23498;50.958;3.124;2022-11-04T03:17:26;10.63;;;2.50;;
37655;SDS011;23498;50.958;3.124;2022-11-04T03:20:07;13.27;;;3.10;;
37655;SDS011;23498;50.958;3.124;2022-11-04T03:22:53;10.00;;;3.15;;
37655;SDS011;23498;50.958;3.124;2022-11-04T03:25:39;9.48;;;3.47;;
37655;SDS011;23498;50.958;3.124;2022-11-04T03:30:56;9.05;;;3.33;;
37655;SDS011;23498;50.958;3.124;2022-11-04T03:33:38;9.63;;;3.35;;
37655;SDS011;23498;50.958;3.124;2022-11-04T03:36:18;12.93;;;3.90;;
37655;SDS011;23498;50.958;3.124;2022-11-04T03:38:44;8.80;;;3.33;;
37655;SDS011;23498;50.958;3.124;2022-11-04T03:41:32;9.55;;;3.58;;
37655;SDS011;23498;50.958;3.124;2022-11-04T03:43:59;8.18;;;4.20;;
37655;SDS011;23498;50.958;3.124;2022-11-04T03:46:26;13.07;;;4.32;;
37655;SDS011;23498;50.958;3.124;2022-11-04T03:48:52;12.57;;;4.25;;
37655;SDS011;23498;50.958;3.124;2022-11-04T03:51:18;10.35;;;4.53;;
37655;SDS011;23498;50.958;3.124;2022-11-04T03:53:44;13.10;;;4.35;;
37655;SDS011;23498;50.958;3.124;2022-11-04T03:58:43;9.38;;;3.60;;
37655;SDS011;23498;50.958;3.124;2022-11-04T04:03:57;9.75;;;2.85;;
37655;SDS011;23498;50.958;3.124;2022-11-04T04:06:26;7.57;;;3.00;;
37655;SDS011;23498;50.958;3.124;2022-11-04T04:08:55;11.95;;;3.25;;
37655;SDS011;23498;50.958;3.124;2022-11-04T04:16:21;12.20;;;3.15;;
37655;SDS011;23498;50.958;3.124;2022-11-04T04:19:09;10.15;;;3.13;;
37655;SDS011;23498;50.958;3.124;2022-11-04T04:21:39;9.98;;;3.08;;
37655;SDS011;23498;50.958;3.124;2022-11-04T04:24:07;11.27;;;3.10;;
37655;SDS011;23498;50.958;3.124;2022-11-04T04:26:53;11.52;;;2.90;;
37655;SDS011;23498;50.958;3.124;2022-11-04T04:29:38;9.32;;;3.17;;
37655;SDS011;23498;50.958;3.124;2022-11-04T04:32:07;9.73;;;3.20;;
37655;SDS011;23498;50.958;3.124;2022-11-04T04:34:34;11.27;;;2.85;;
37655;SDS011;23498;50.958;3.124;2022-11-04T04:39:49;9.88;;;3.25;;
37655;SDS011;23498;50.958;3.124;2022-11-04T04:42:43;8.63;;;3.17;;
37655;SDS011;23498;50.958;3.124;2022-11-04T04:45:35;11.75;;;2.85;;
37655;SDS011;23498;50.958;3.124;2022-11-04T04:48:26;8.23;;;3.22;;
37655;SDS011;23498;50.958;3.124;2022-11-04T04:50:56;10.80;;;4.18;;
37655;SDS011;23498;50.958;3.124;2022-11-04T04:54:04;9.20;;;3.33;;
37655;SDS011;23498;50.958;3.124;2022-11-04T04:56:39;11.82;;;4.22;;
37655;SDS011;23498;50.958;3.124;2022-11-04T04:59:05;10.55;;;3.45;;
37655;SDS011;23498;50.958;3.124;2022-11-04T05:01:31;9.88;;;3.50;;
37655;SDS011;23498;50.958;3.124;2022-11-04T05:06:29;11.20;;;3.90;;
37655;SDS011;23498;50.958;3.124;2022-11-04T05:09:15;12.25;;;3.92;;
37655;SDS011;23498;50.958;3.124;2022-11-04T05:12:01;12.82;;;4.80;;
37655;SDS011;23498;50.958;3.124;2022-11-04T05:14:28;9.93;;;4.65;;
37655;SDS011;23498;50.958;3.124;2022-11-04T05:17:13;12.75;;;4.60;;
37655;SDS011;23498;50.958;3.124;2022-11-04T05:19:39;9.95;;;4.13;;
37655;SDS011;23498;50.958;3.124;2022-11-04T05:22:06;10.75;;;3.80;;
37655;SDS011;23498;50.958;3.124;2022-11-04T05:24:33;11.10;;;4.25;;
37655;SDS011;23498;50.958;3.124;2022-11-04T05:26:59;13.27;;;3.70;;
37655;SDS011;23498;50.958;3.124;2022-11-04T05:29:25;8.30;;;4.05;;
37655;SDS011;23498;50.958;3.124;2022-11-04T05:31:51;11.10;;;3.95;;
37655;SDS011;23498;50.958;3.124;2022-11-04T05:34:20;9.43;;;3.60;;
37655;SDS011;23498;50.958;3.124;2022-11-04T05:36:46;9.90;;;4.68;;
37655;SDS011;23498;50.958;3.124;2022-11-04T05:39:12;11.93;;;4.57;;
37655;SDS011;23498;50.958;3.124;2022-11-04T05:41:58;10.80;;;4.00;;
37655;SDS011;23498;50.958;3.124;2022-11-04T05:44:25;10.45;;;4.10;;
37655;SDS011;23498;50.958;3.124;2022-11-04T05:49:40;8.50;;;4.03;;
37655;SDS011;23498;50.958;3.124;2022-11-04T05:52:06;9.93;;;3.88;;
37655;SDS011;23498;50.958;3.124;2022-11-04T05:54:32;9.85;;;4.20;;
37655;SDS011;23498;50.958;3.124;2022-11-04T05:57:18;19.02;;;4.50;;
37655;SDS011;23498;50.958;3.124;2022-11-04T06:00:04;12.48;;;4.15;;
37655;SDS011;23498;50.958;3.124;2022-11-04T06:02:30;13.88;;;4.60;;
37655;SDS011;23498;50.958;3.124;2022-11-04T06:04:57;11.00;;;4.22;;
37655;SDS011;23498;50.958;3.124;2022-11-04T06:07:26;12.57;;;4.72;;
37655;SDS011;23498;50.958;3.124;2022-11-04T06:09:52;13.70;;;5.15;;
37655;SDS011;23498;50.958;3.124;2022-11-04T06:12:18;11.38;;;5.25;;
37655;SDS011;23498;50.958;3.124;2022-11-04T06:14:52;11.38;;;4.80;;
37655;SDS011;23498;50.958;3.124;2022-11-04T06:17:22;68.40;;;34.38;;
37655;SDS011;23498;50.958;3.124;2022-11-04T06:20:08;16.15;;;8.40;;
37655;SDS011;23498;50.958;3.124;2022-11-04T06:22:34;16.55;;;6.90;;
37655;SDS011;23498;50.958;3.124;2022-11-04T06:25:00;13.98;;;6.05;;
37655;SDS011;23498;50.958;3.124;2022-11-04T06:27:26;12.18;;;5.63;;
37655;SDS011;23498;50.958;3.124;2022-11-04T06:29:52;11.77;;;5.43;;
37655;SDS011;23498;50.958;3.124;2022-11-04T06:32:18;11.30;;;5.85;;
37655;SDS011;23498;50.958;3.124;2022-11-04T06:34:48;11.13;;;6.28;;
37655;SDS011;23498;50.958;3.124;2022-11-04T06:37:14;14.95;;;6.38;;
37655;SDS011;23498;50.958;3.124;2022-11-04T06:39:43;13.40;;;6.03;;
37655;SDS011;23498;50.958;3.124;2022-11-04T06:42:29;11.40;;;6.35;;
37655;SDS011;23498;50.958;3.124;2022-11-04T06:44:55;15.27;;;6.18;;
37655;SDS011;23498;50.958;3.124;2022-11-04T06:47:21;13.20;;;5.65;;
37655;SDS011;23498;50.958;3.124;2022-11-04T06:49:47;13.15;;;5.70;;
37655;SDS011;23498;50.958;3.124;2022-11-04T06:52:13;13.07;;;5.38;;
37655;SDS011;23498;50.958;3.124;2022-11-04T06:54:39;12.32;;;5.63;;
37655;SDS011;23498;50.958;3.124;2022-11-04T06:57:05;13.85;;;6.50;;
37655;SDS011;23498;50.958;3.124;2022-11-04T06:59:30;11.57;;;6.60;;
37655;SDS011;23498;50.958;3.124;2022-11-04T07:01:57;20.25;;;12.65;;
37655;SDS011;23498;50.958;3.124;2022-11-04T07:04:23;19.63;;;11.20;;
37655;SDS011;23498;50.958;3.124;2022-11-04T07:06:49;18.17;;;11.20;;
37655;SDS011;23498;50.958;3.124;2022-11-04T07:09:15;18.40;;;11.50;;
37655;SDS011;23498;50.958;3.124;2022-11-04T07:11:41;23.98;;;10.60;;
37655;SDS011;23498;50.958;3.124;2022-11-04T07:14:08;15.25;;;9.57;;
37655;SDS011;23498;50.958;3.124;2022-11-04T07:16:34;15.02;;;8.85;;
37655;SDS011;23498;50.958;3.124;2022-11-04T07:19:00;14.40;;;8.43;;
37655;SDS011;23498;50.958;3.124;2022-11-04T07:21:26;16.25;;;8.27;;
37655;SDS011;23498;50.958;3.124;2022-11-04T07:23:52;18.08;;;8.38;;
37655;SDS011;23498;50.958;3.124;2022-11-04T07:26:19;14.32;;;7.80;;
37655;SDS011;23498;50.958;3.124;2022-11-04T07:28:46;15.55;;;7.65;;
37655;SDS011;23498;50.958;3.124;2022-11-04T07:31:15;14.18;;;8.07;;
37655;SDS011;23498;50.958;3.124;2022-11-04T07:33:42;20.00;;;8.27;;
37655;SDS011;23498;50.958;3.124;2022-11-04T07:36:17;15.27;;;7.85;;
37655;SDS011;23498;50.958;3.124;2022-11-04T07:38:43;16.25;;;7.75;;
37655;SDS011;23498;50.958;3.124;2022-11-04T07:41:09;18.83;;;7.80;;
37655;SDS011;23498;50.958;3.124;2022-11-04T07:43:35;15.93;;;7.68;;
37655;SDS011;23498;50.958;3.124;2022-11-04T07:46:03;14.85;;;7.07;;
37655;SDS011;23498;50.958;3.124;2022-11-04T07:48:29;15.57;;;7.93;;
37655;SDS011;23498;50.958;3.124;2022-11-04T07:50:56;16.58;;;7.05;;
37655;SDS011;23498;50.958;3.124;2022-11-04T07:53:22;16.63;;;8.00;;
37655;SDS011;23498;50.958;3.124;2022-11-04T07:55:48;14.65;;;7.05;;
37655;SDS011;23498;50.958;3.124;2022-11-04T07:58:15;14.68;;;7.13;;
37655;SDS011;23498;50.958;3.124;2022-11-04T08:00:41;14.80;;;7.10;;
37655;SDS011;23498;50.958;3.124;2022-11-04T08:03:08;15.52;;;7.32;;
37655;SDS011;23498;50.958;3.124;2022-11-04T08:05:34;13.27;;;6.75;;
37655;SDS011;23498;50.958;3.124;2022-11-04T08:08:00;16.88;;;6.70;;
37655;SDS011;23498;50.958;3.124;2022-11-04T08:10:26;20.15;;;7.13;;
37655;SDS011;23498;50.958;3.124;2022-11-04T08:12:53;17.67;;;7.82;;
37655;SDS011;23498;50.958;3.124;2022-11-04T08:15:22;16.02;;;7.15;;
37655;SDS011;23498;50.958;3.124;2022-11-04T08:17:48;11.15;;;6.47;;
37655;SDS011;23498;50.958;3.124;2022-11-04T08:20:14;15.73;;;7.22;;
37655;SDS011;23498;50.958;3.124;2022-11-04T08:22:40;14.88;;;7.10;;
37655;SDS011;23498;50.958;3.124;2022-11-04T08:25:06;14.57;;;6.70;;
37655;SDS011;23498;50.958;3.124;2022-11-04T08:27:33;18.30;;;7.45;;
37655;SDS011;23498;50.958;3.124;2022-11-04T08:29:59;16.88;;;9.07;;
37655;SDS011;23498;50.958;3.124;2022-11-04T08:32:25;19.42;;;10.60;;
37655;SDS011;23498;50.958;3.124;2022-11-04T08:34:51;14.57;;;9.30;;
37655;SDS011;23498;50.958;3.124;2022-11-04T08:37:17;14.77;;;6.63;;
37655;SDS011;23498;50.958;3.124;2022-11-04T08:39:43;13.75;;;6.80;;
37655;SDS011;23498;50.958;3.124;2022-11-04T08:42:09;14.43;;;6.82;;
37655;SDS011;23498;50.958;3.124;2022-11-04T08:44:35;16.27;;;9.27;;
37655;SDS011;23498;50.958;3.124;2022-11-04T08:47:03;19.83;;;9.57;;
37655;SDS011;23498;50.958;3.124;2022-11-04T08:49:29;12.70;;;8.00;;
37655;SDS011;23498;50.958;3.124;2022-11-04T08:51:55;14.90;;;7.32;;
37655;SDS011;23498;50.958;3.124;2022-11-04T08:54:24;15.70;;;7.10;;
37655;SDS011;23498;50.958;3.124;2022-11-04T08:56:50;14.93;;;8.05;;
37655;SDS011;23498;50.958;3.124;2022-11-04T08:59:16;17.13;;;8.70;;
37655;SDS011;23498;50.958;3.124;2022-11-04T09:01:42;17.70;;;8.57;;
37655;SDS011;23498;50.958;3.124;2022-11-04T09:04:09;18.02;;;9.20;;
37655;SDS011;23498;50.958;3.124;2022-11-04T09:06:36;18.80;;;8.77;;
37655;SDS011;23498;50.958;3.124;2022-11-04T09:09:03;13.85;;;8.02;;
37655;SDS011;23498;50.958;3.124;2022-11-04T09:11:31;18.13;;;9.65;;
37655;SDS011;23498;50.958;3.124;2022-11-04T09:13:58;20.40;;;11.77;;
37655;SDS011;23498;50.958;3.124;2022-11-04T09:16:25;21.00;;;12.68;;
37655;SDS011;23498;50.958;3.124;2022-11-04T09:18:51;21.92;;;13.05;;
37655;SDS011;23498;50.958;3.124;2022-11-04T09:21:16;22.98;;;13.38;;
37655;SDS011;23498;50.958;3.124;2022-11-04T09:23:42;24.65;;;13.80;;
37655;SDS011;23498;50.958;3.124;2022-11-04T09:26:12;22.92;;;13.43;;
37655;SDS011;23498;50.958;3.124;2022-11-04T09:28:38;26.73;;;13.75;;
37655;SDS011;23498;50.958;3.124;2022-11-04T09:31:08;27.83;;;16.50;;
37655;SDS011;23498;50.958;3.124;2022-11-04T09:33:35;23.50;;;14.13;;
37655;SDS011;23498;50.958;3.124;2022-11-04T09:36:01;25.85;;;13.93;;
37655;SDS011;23498;50.958;3.124;2022-11-04T09:38:27;25.77;;;14.25;;
37655;SDS011;23498;50.958;3.124;2022-11-04T09:40:53;21.02;;;13.40;;
37655;SDS011;23498;50.958;3.124;2022-11-04T09:43:31;26.65;;;13.52;;
37655;SDS011;23498;50.958;3.124;2022-11-04T09:46:21;20.27;;;13.05;;
37655;SDS011;23498;50.958;3.124;2022-11-04T09:48:49;19.23;;;12.35;;
37655;SDS011;23498;50.958;3.124;2022-11-04T09:51:34;19.90;;;13.57;;
37655;SDS011;23498;50.958;3.124;2022-11-04T09:54:19;19.92;;;12.10;;
37655;SDS011;23498;50.958;3.124;2022-11-04T09:57:04;23.70;;;14.40;;
37655;SDS011;23498;50.958;3.124;2022-11-04T09:59:42;20.77;;;12.75;;
37655;SDS011;23498;50.958;3.124;2022-11-04T10:02:34;24.25;;;13.50;;
37655;SDS011;23498;50.958;3.124;2022-11-04T10:05:08;19.00;;;12.65;;
37655;SDS011;23498;50.958;3.124;2022-11-04T10:10:20;22.23;;;13.25;;
37655;SDS011;23498;50.958;3.124;2022-11-04T10:12:59;19.98;;;12.20;;
37655;SDS011;23498;50.958;3.124;2022-11-04T10:18:02;20.50;;;11.88;;
37655;SDS011;23498;50.958;3.124;2022-11-04T10:23:22;19.48;;;12.30;;
37655;SDS011;23498;50.958;3.124;2022-11-04T10:29:04;17.17;;;10.88;;
37655;SDS011;23498;50.958;3.124;2022-11-04T10:31:31;15.65;;;9.90;;
37655;SDS011;23498;50.958;3.124;2022-11-04T10:34:06;15.00;;;9.90;;
37655;SDS011;23498;50.958;3.124;2022-11-04T10:36:33;14.60;;;9.63;;
37655;SDS011;23498;50.958;3.124;2022-11-04T10:39:22;13.43;;;8.68;;
37655;SDS011;23498;50.958;3.124;2022-11-04T10:42:04;13.05;;;7.90;;
37655;SDS011;23498;50.958;3.124;2022-11-04T10:44:31;8.10;;;5.25;;
37655;SDS011;23498;50.958;3.124;2022-11-04T10:47:39;8.68;;;4.38;;
37655;SDS011;23498;50.958;3.124;2022-11-04T10:50:29;9.20;;;4.18;;
37655;SDS011;23498;50.958;3.124;2022-11-04T10:53:22;9.57;;;3.92;;
37655;SDS011;23498;50.958;3.124;2022-11-04T10:58:59;7.53;;;3.92;;
37655;SDS011;23498;50.958;3.124;2022-11-04T11:02:11;7.88;;;4.70;;
37655;SDS011;23498;50.958;3.124;2022-11-04T11:04:40;7.10;;;4.32;;
37655;SDS011;23498;50.958;3.124;2022-11-04T11:07:26;7.10;;;4.40;;
37655;SDS011;23498;50.958;3.124;2022-11-04T11:10:32;5.97;;;3.75;;
37655;SDS011;23498;50.958;3.124;2022-11-04T11:13:25;8.02;;;4.65;;
37655;SDS011;23498;50.958;3.124;2022-11-04T11:18:37;6.55;;;4.40;;
37655;SDS011;23498;50.958;3.124;2022-11-04T11:21:08;7.57;;;4.80;;
37655;SDS011;23498;50.958;3.124;2022-11-04T11:23:39;8.80;;;4.97;;
37655;SDS011;23498;50.958;3.124;2022-11-04T11:26:07;9.25;;;5.50;;
37655;SDS011;23498;50.958;3.124;2022-11-04T11:28:33;9.93;;;5.85;;
37655;SDS011;23498;50.958;3.124;2022-11-04T11:31:03;11.07;;;6.15;;
37655;SDS011;23498;50.958;3.124;2022-11-04T11:33:38;7.30;;;5.30;;
37655;SDS011;23498;50.958;3.124;2022-11-04T11:36:09;9.70;;;5.05;;
37655;SDS011;23498;50.958;3.124;2022-11-04T11:39:42;6.75;;;4.25;;
37655;SDS011;23498;50.958;3.124;2022-11-04T11:41:48;7.57;;;4.30;;
37655;SDS011;23498;50.958;3.124;2022-11-04T11:44:19;9.80;;;4.30;;
37655;SDS011;23498;50.958;3.124;2022-11-04T11:46:54;6.82;;;4.50;;
37655;SDS011;23498;50.958;3.124;2022-11-04T11:49:25;6.18;;;3.53;;
37655;SDS011;23498;50.958;3.124;2022-11-04T11:51:53;6.25;;;3.70;;
37655;SDS011;23498;50.958;3.124;2022-11-04T11:54:25;8.13;;;3.15;;
37655;SDS011;23498;50.958;3.124;2022-11-04T11:56:54;5.20;;;3.17;;
37655;SDS011;23498;50.958;3.124;2022-11-04T11:59:37;6.00;;;3.22;;
37655;SDS011;23498;50.958;3.124;2022-11-04T12:04:39;6.70;;;3.53;;
37655;SDS011;23498;50.958;3.124;2022-11-04T12:17:21;6.90;;;2.75;;
37655;SDS011;23498;50.958;3.124;2022-11-04T12:22:23;4.03;;;2.00;;
37655;SDS011;23498;50.958;3.124;2022-11-04T12:30:00;4.60;;;1.83;;
37655;SDS011;23498;50.958;3.124;2022-11-04T12:40:20;5.20;;;2.00;;
37655;SDS011;23498;50.958;3.124;2022-11-04T12:42:51;3.03;;;1.58;;
37655;SDS011;23498;50.958;3.124;2022-11-04T12:47:52;4.78;;;1.90;;
37655;SDS011;23498;50.958;3.124;2022-11-04T12:53:18;3.88;;;1.27;;
37655;SDS011;23498;50.958;3.124;2022-11-04T12:58:23;5.00;;;1.30;;
37655;SDS011;23498;50.958;3.124;2022-11-04T13:00:59;4.40;;;1.10;;
37655;SDS011;23498;50.958;3.124;2022-11-04T13:03:27;2.55;;;1.10;;
37655;SDS011;23498;50.958;3.124;2022-11-04T13:06:09;2.90;;;0.80;;
37655;SDS011;23498;50.958;3.124;2022-11-04T13:16:45;4.50;;;1.02;;
37655;SDS011;23498;50.958;3.124;2022-11-04T13:19:19;5.45;;;1.15;;
37655;SDS011;23498;50.958;3.124;2022-11-04T13:21:47;2.35;;;0.90;;
37655;SDS011;23498;50.958;3.124;2022-11-04T13:26:42;3.53;;;1.00;;
37655;SDS011;23498;50.958;3.124;2022-11-04T13:29:14;4.93;;;1.08;;
37655;SDS011;23498;50.958;3.124;2022-11-04T13:31:45;3.55;;;1.17;;
37655;SDS011;23498;50.958;3.124;2022-11-04T13:34:35;2.67;;;0.90;;
37655;SDS011;23498;50.958;3.124;2022-11-04T13:40:10;4.55;;;1.48;;
37655;SDS011;23498;50.958;3.124;2022-11-04T13:43:05;2.85;;;1.10;;
37655;SDS011;23498;50.958;3.124;2022-11-04T13:51:59;3.47;;;1.13;;
37655;SDS011;23498;50.958;3.124;2022-11-04T13:55:02;4.57;;;1.25;;
37655;SDS011;23498;50.958;3.124;2022-11-04T13:57:48;3.72;;;1.00;;
37655;SDS011;23498;50.958;3.124;2022-11-04T14:00:33;4.10;;;1.08;;
37655;SDS011;23498;50.958;3.124;2022-11-04T14:03:37;4.80;;;1.38;;
37655;SDS011;23498;50.958;3.124;2022-11-04T14:06:06;5.88;;;1.10;;
37655;SDS011;23498;50.958;3.124;2022-11-04T14:08:35;6.47;;;1.60;;
37655;SDS011;23498;50.958;3.124;2022-11-04T14:11:08;6.60;;;1.17;;
37655;SDS011;23498;50.958;3.124;2022-11-04T14:14:00;7.75;;;1.63;;
37655;SDS011;23498;50.958;3.124;2022-11-04T14:20:23;5.53;;;1.35;;
37655;SDS011;23498;50.958;3.124;2022-11-04T14:23:31;4.72;;;1.30;;
37655;SDS011;23498;50.958;3.124;2022-11-04T14:26:18;4.80;;;1.10;;
37655;SDS011;23498;50.958;3.124;2022-11-04T14:29:24;5.05;;;1.38;;
37655;SDS011;23498;50.958;3.124;2022-11-04T14:31:52;3.63;;;1.20;;
37655;SDS011;23498;50.958;3.124;2022-11-04T14:35:03;6.75;;;1.42;;
37655;SDS011;23498;50.958;3.124;2022-11-04T14:40:43;4.80;;;1.40;;
37655;SDS011;23498;50.958;3.124;2022-11-04T14:43:41;5.07;;;1.60;;
37655;SDS011;23498;50.958;3.124;2022-11-04T14:46:28;7.93;;;2.15;;
37655;SDS011;23498;50.958;3.124;2022-11-04T14:49:36;7.88;;;2.35;;
37655;SDS011;23498;50.958;3.124;2022-11-04T14:52:13;8.43;;;2.90;;
37655;SDS011;23498;50.958;3.124;2022-11-04T14:54:46;10.02;;;3.40;;
37655;SDS011;23498;50.958;3.124;2022-11-04T14:57:17;7.38;;;2.20;;
37655;SDS011;23498;50.958;3.124;2022-11-04T14:59:43;8.82;;;2.60;;
37655;SDS011;23498;50.958;3.124;2022-11-04T15:02:11;8.10;;;2.63;;
37655;SDS011;23498;50.958;3.124;2022-11-04T15:04:54;10.23;;;2.85;;
37655;SDS011;23498;50.958;3.124;2022-11-04T15:07:46;8.80;;;2.28;;
37655;SDS011;23498;50.958;3.124;2022-11-04T15:10:20;8.68;;;2.15;;
37655;SDS011;23498;50.958;3.124;2022-11-04T15:12:48;5.80;;;2.30;;
37655;SDS011;23498;50.958;3.124;2022-11-04T15:15:25;7.72;;;2.40;;
37655;SDS011;23498;50.958;3.124;2022-11-04T15:17:52;10.82;;;2.47;;
37655;SDS011;23498;50.958;3.124;2022-11-04T15:20:24;7.18;;;2.80;;
37655;SDS011;23498;50.958;3.124;2022-11-04T15:22:54;9.65;;;2.80;;
37655;SDS011;23498;50.958;3.124;2022-11-04T15:25:21;6.25;;;2.15;;
37655;SDS011;23498;50.958;3.124;2022-11-04T15:27:47;8.23;;;1.92;;
37655;SDS011;23498;50.958;3.124;2022-11-04T15:30:18;8.98;;;2.72;;
37655;SDS011;23498;50.958;3.124;2022-11-04T15:32:54;8.18;;;2.10;;
37655;SDS011;23498;50.958;3.124;2022-11-04T15:35:21;9.32;;;1.90;;
37655;SDS011;23498;50.958;3.124;2022-11-04T15:37:48;12.35;;;2.38;;
37655;SDS011;23498;50.958;3.124;2022-11-04T15:40:16;9.43;;;2.25;;
37655;SDS011;23498;50.958;3.124;2022-11-04T15:42:42;13.85;;;3.15;;
37655;SDS011;23498;50.958;3.124;2022-11-04T15:47:47;5.72;;;2.00;;
37655;SDS011;23498;50.958;3.124;2022-11-04T15:50:14;8.90;;;2.28;;
37655;SDS011;23498;50.958;3.124;2022-11-04T15:52:50;11.40;;;2.20;;
37655;SDS011;23498;50.958;3.124;2022-11-04T15:55:24;8.55;;;2.30;;
37655;SDS011;23498;50.958;3.124;2022-11-04T15:57:51;9.40;;;2.53;;
37655;SDS011;23498;50.958;3.124;2022-11-04T16:00:19;10.52;;;2.35;;
37655;SDS011;23498;50.958;3.124;2022-11-04T16:02:47;9.45;;;2.65;;
37655;SDS011;23498;50.958;3.124;2022-11-04T16:07:43;9.65;;;3.10;;
37655;SDS011;23498;50.958;3.124;2022-11-04T16:16:04;8.73;;;3.05;;
37655;SDS011;23498;50.958;3.124;2022-11-04T16:18:56;9.88;;;2.65;;
37655;SDS011;23498;50.958;3.124;2022-11-04T16:21:41;9.23;;;2.53;;
37655;SDS011;23498;50.958;3.124;2022-11-04T16:26:39;10.68;;;3.13;;
37655;SDS011;23498;50.958;3.124;2022-11-04T16:29:18;13.23;;;3.63;;
37655;SDS011;23498;50.958;3.124;2022-11-04T16:31:45;14.23;;;4.55;;
37655;SDS011;23498;50.958;3.124;2022-11-04T16:34:52;11.05;;;3.85;;
37655;SDS011;23498;50.958;3.124;2022-11-04T16:37:37;12.43;;;3.85;;
37655;SDS011;23498;50.958;3.124;2022-11-04T16:40:03;10.82;;;4.40;;
37655;SDS011;23498;50.958;3.124;2022-11-04T16:42:31;15.68;;;4.78;;
37655;SDS011;23498;50.958;3.124;2022-11-04T16:44:58;11.52;;;5.30;;
37655;SDS011;23498;50.958;3.124;2022-11-04T16:47:35;14.38;;;5.93;;
37655;SDS011;23498;50.958;3.124;2022-11-04T16:50:10;14.82;;;6.28;;
37655;SDS011;23498;50.958;3.124;2022-11-04T16:52:43;18.30;;;6.70;;
37655;SDS011;23498;50.958;3.124;2022-11-04T16:55:29;13.27;;;6.35;;
37655;SDS011;23498;50.958;3.124;2022-11-04T16:58:00;15.68;;;8.90;;
37655;SDS011;23498;50.958;3.124;2022-11-04T17:00:27;14.13;;;6.60;;
37655;SDS011;23498;50.958;3.124;2022-11-04T17:02:56;17.50;;;6.32;;
37655;SDS011;23498;50.958;3.124;2022-11-04T17:05:22;14.98;;;7.35;;
37655;SDS011;23498;50.958;3.124;2022-11-04T17:07:48;9.88;;;4.55;;
37655;SDS011;23498;50.958;3.124;2022-11-04T17:10:22;11.45;;;5.05;;
37655;SDS011;23498;50.958;3.124;2022-11-04T17:12:48;11.48;;;4.80;;
37655;SDS011;23498;50.958;3.124;2022-11-04T17:15:15;11.18;;;4.57;;
37655;SDS011;23498;50.958;3.124;2022-11-04T17:17:41;10.75;;;3.10;;
37655;SDS011;23498;50.958;3.124;2022-11-04T17:20:09;12.73;;;3.63;;
37655;SDS011;23498;50.958;3.124;2022-11-04T17:22:36;10.52;;;3.60;;
37655;SDS011;23498;50.958;3.124;2022-11-04T17:25:02;10.80;;;4.20;;
37655;SDS011;23498;50.958;3.124;2022-11-04T17:27:28;9.68;;;3.55;;